sensor_id;sensor_type;location;lat;lon;timestamp;temperature;humidity
16076;DHT22;8142;48.242;11.644;2023-08-07T00:00:52;13.90;99.90
16076;DHT22;8142;48.242;11.644;2023-08-07T00:03:18;13.90;99.90
16076;DHT22;8142;48.242;11.644;2023-08-07T00:05:45;13.90;99.90
16076;DHT22;8142;48.242;11.644;2023-08-07T00:08:12;13.90;99.90
16076;DHT22;8142;48.242;11.644;2023-08-07T00:10:38;13.90;99.90
16076;DHT22;8142;48.242;11.644;2023-08-07T00:13:03;13.80;99.90
16076;DHT22;8142;48.242;11.644;2023-08-07T00:15:29;13.80;99.90
16076;DHT22;8142;48.242;11.644;2023-08-07T00:17:55;13.80;99.90
16076;DHT22;8142;48.242;11.644;2023-08-07T00:20:21;13.80;99.90
16076;DHT22;8142;48.242;11.644;2023-08-07T00:22:47;13.80;99.90
16076;DHT22;8142;48.242;11.644;2023-08-07T00:25:13;13.80;99.90
16076;DHT22;8142;48.242;11.644;2023-08-07T00:27:38;13.80;99.90
16076;DHT22;8142;48.242;11.644;2023-08-07T00:30:05;13.80;99.90
16076;DHT22;8142;48.242;11.644;2023-08-07T00:32:31;13.70;99.90
16076;DHT22;8142;48.242;11.644;2023-08-07T00:34:56;13.70;99.90
16076;DHT22;8142;48.242;11.644;2023-08-07T00:37:22;13.70;99.90
16076;DHT22;8142;48.242;11.644;2023-08-07T00:39:48;13.70;99.90
16076;DHT22;8142;48.242;11.644;2023-08-07T00:42:14;13.70;99.90
16076;DHT22;8142;48.242;11.644;2023-08-07T00:44:40;13.60;99.90
16076;DHT22;8142;48.242;11.644;2023-08-07T00:47:06;13.60;99.90
16076;DHT22;8142;48.242;11.644;2023-08-07T00:49:32;13.60;99.90
16076;DHT22;8142;48.242;11.644;2023-08-07T00:51:59;13.50;99.90
16076;DHT22;8142;48.242;11.644;2023-08-07T00:54:25;13.50;99.90
16076;DHT22;8142;48.242;11.644;2023-08-07T00:56:51;13.40;99.90
16076;DHT22;8142;48.242;11.644;2023-08-07T00:59:18;13.40;99.90
16076;DHT22;8142;48.242;11.644;2023-08-07T01:01:45;13.40;99.90
16076;DHT22;8142;48.242;11.644;2023-08-07T01:04:11;13.40;99.90
16076;DHT22;8142;48.242;11.644;2023-08-07T01:06:40;13.30;99.90
16076;DHT22;8142;48.242;11.644;2023-08-07T01:09:06;13.30;99.90
16076;DHT22;8142;48.242;11.644;2023-08-07T01:11:44;13.30;99.90
16076;DHT22;8142;48.242;11.644;2023-08-07T01:14:28;13.30;99.90
16076;DHT22;8142;48.242;11.644;2023-08-07T01:17:15;13.30;99.90
16076;DHT22;8142;48.242;11.644;2023-08-07T01:19:42;13.20;99.90
16076;DHT22;8142;48.242;11.644;2023-08-07T01:22:16;13.20;99.90
16076;DHT22;8142;48.242;11.644;2023-08-07T01:24:47;13.20;99.90
16076;DHT22;8142;48.242;11.644;2023-08-07T01:30:16;13.10;99.90
16076;DHT22;8142;48.242;11.644;2023-08-07T01:35:22;13.10;99.90
16076;DHT22;8142;48.242;11.644;2023-08-07T01:37:54;13.10;99.90
16076;DHT22;8142;48.242;11.644;2023-08-07T01:40:22;13.10;99.90
16076;DHT22;8142;48.242;11.644;2023-08-07T01:42:48;13.10;99.90
16076;DHT22;8142;48.242;11.644;2023-08-07T01:45:25;13.10;99.90
16076;DHT22;8142;48.242;11.644;2023-08-07T01:47:51;13.10;99.90
16076;DHT22;8142;48.242;11.644;2023-08-07T01:50:19;13.10;99.90
16076;DHT22;8142;48.242;11.644;2023-08-07T01:52:45;13.10;99.90
16076;DHT22;8142;48.242;11.644;2023-08-07T01:55:13;13.10;99.90
16076;DHT22;8142;48.242;11.644;2023-08-07T01:57:39;13.10;99.90
16076;DHT22;8142;48.242;11.644;2023-08-07T02:00:06;13.10;99.90
16076;DHT22;8142;48.242;11.644;2023-08-07T02:02:34;13.00;99.90
16076;DHT22;8142;48.242;11.644;2023-08-07T02:05:00;13.00;99.90
16076;DHT22;8142;48.242;11.644;2023-08-07T02:07:26;13.00;99.90
16076;DHT22;8142;48.242;11.644;2023-08-07T02:09:52;13.00;99.90
16076;DHT22;8142;48.242;11.644;2023-08-07T02:12:17;13.00;99.90
16076;DHT22;8142;48.242;11.644;2023-08-07T02:14:43;13.00;99.90
16076;DHT22;8142;48.242;11.644;2023-08-07T02:17:09;13.10;99.90
16076;DHT22;8142;48.242;11.644;2023-08-07T02:19:35;13.00;99.90
16076;DHT22;8142;48.242;11.644;2023-08-07T02:22:01;13.00;99.90
16076;DHT22;8142;48.242;11.644;2023-08-07T02:24:27;13.00;99.90
16076;DHT22;8142;48.242;11.644;2023-08-07T02:26:53;13.00;99.90
16076;DHT22;8142;48.242;11.644;2023-08-07T02:29:19;13.00;99.90
16076;DHT22;8142;48.242;11.644;2023-08-07T02:31:44;13.00;99.90
16076;DHT22;8142;48.242;11.644;2023-08-07T02:34:10;13.00;99.90
16076;DHT22;8142;48.242;11.644;2023-08-07T02:36:36;13.00;99.90
16076;DHT22;8142;48.242;11.644;2023-08-07T02:39:02;12.90;99.90
16076;DHT22;8142;48.242;11.644;2023-08-07T02:41:29;12.90;99.90
16076;DHT22;8142;48.242;11.644;2023-08-07T02:43:55;13.00;99.90
16076;DHT22;8142;48.242;11.644;2023-08-07T02:46:21;12.90;99.90
16076;DHT22;8142;48.242;11.644;2023-08-07T02:48:47;12.90;99.90
16076;DHT22;8142;48.242;11.644;2023-08-07T02:51:13;12.90;99.90
16076;DHT22;8142;48.242;11.644;2023-08-07T02:53:38;12.90;99.90
16076;DHT22;8142;48.242;11.644;2023-08-07T02:56:04;12.90;99.90
16076;DHT22;8142;48.242;11.644;2023-08-07T02:58:30;12.90;99.90
16076;DHT22;8142;48.242;11.644;2023-08-07T03:00:56;12.90;99.90
16076;DHT22;8142;48.242;11.644;2023-08-07T03:03:22;12.90;99.90
16076;DHT22;8142;48.242;11.644;2023-08-07T03:05:49;12.90;99.90
16076;DHT22;8142;48.242;11.644;2023-08-07T03:08:16;12.90;99.90
16076;DHT22;8142;48.242;11.644;2023-08-07T03:10:42;12.90;99.90
16076;DHT22;8142;48.242;11.644;2023-08-07T03:13:07;12.90;99.90
16076;DHT22;8142;48.242;11.644;2023-08-07T03:15:33;12.90;99.90
16076;DHT22;8142;48.242;11.644;2023-08-07T03:17:59;12.80;99.90
16076;DHT22;8142;48.242;11.644;2023-08-07T03:20:25;12.80;99.90
16076;DHT22;8142;48.242;11.644;2023-08-07T03:22:51;12.80;99.90
16076;DHT22;8142;48.242;11.644;2023-08-07T03:25:18;12.80;99.90
16076;DHT22;8142;48.242;11.644;2023-08-07T03:27:43;12.90;99.90
16076;DHT22;8142;48.242;11.644;2023-08-07T03:30:10;12.90;99.90
16076;DHT22;8142;48.242;11.644;2023-08-07T03:32:36;12.90;99.90
16076;DHT22;8142;48.242;11.644;2023-08-07T03:35:01;12.90;99.90
16076;DHT22;8142;48.242;11.644;2023-08-07T03:37:28;12.90;99.90
16076;DHT22;8142;48.242;11.644;2023-08-07T03:39:54;12.90;99.90
16076;DHT22;8142;48.242;11.644;2023-08-07T03:42:19;12.90;99.90
16076;DHT22;8142;48.242;11.644;2023-08-07T03:44:45;12.90;99.90
16076;DHT22;8142;48.242;11.644;2023-08-07T03:47:11;12.90;99.90
16076;DHT22;8142;48.242;11.644;2023-08-07T03:49:37;12.90;99.90
16076;DHT22;8142;48.242;11.644;2023-08-07T03:52:03;12.90;99.90
16076;DHT22;8142;48.242;11.644;2023-08-07T03:54:29;12.90;99.90
16076;DHT22;8142;48.242;11.644;2023-08-07T03:56:55;12.90;99.90
16076;DHT22;8142;48.242;11.644;2023-08-07T03:59:20;12.90;99.90
16076;DHT22;8142;48.242;11.644;2023-08-07T04:01:46;12.90;99.90
16076;DHT22;8142;48.242;11.644;2023-08-07T04:04:18;12.90;99.90
16076;DHT22;8142;48.242;11.644;2023-08-07T04:06:44;12.90;99.90
16076;DHT22;8142;48.242;11.644;2023-08-07T04:09:10;12.90;99.90
16076;DHT22;8142;48.242;11.644;2023-08-07T04:11:36;12.90;99.90
16076;DHT22;8142;48.242;11.644;2023-08-07T04:14:02;12.90;99.90
16076;DHT22;8142;48.242;11.644;2023-08-07T04:16:28;12.90;99.90
16076;DHT22;8142;48.242;11.644;2023-08-07T04:18:53;12.90;99.90
16076;DHT22;8142;48.242;11.644;2023-08-07T04:21:19;12.90;99.90
16076;DHT22;8142;48.242;11.644;2023-08-07T04:23:45;12.90;99.90
16076;DHT22;8142;48.242;11.644;2023-08-07T04:26:11;12.90;99.90
16076;DHT22;8142;48.242;11.644;2023-08-07T04:28:37;12.90;99.90
16076;DHT22;8142;48.242;11.644;2023-08-07T04:31:02;13.00;99.90
16076;DHT22;8142;48.242;11.644;2023-08-07T04:33:28;13.00;99.90
16076;DHT22;8142;48.242;11.644;2023-08-07T04:35:54;13.00;99.90
16076;DHT22;8142;48.242;11.644;2023-08-07T04:38:20;13.00;99.90
16076;DHT22;8142;48.242;11.644;2023-08-07T04:40:47;13.00;99.90
16076;DHT22;8142;48.242;11.644;2023-08-07T04:43:14;13.00;99.90
16076;DHT22;8142;48.242;11.644;2023-08-07T04:45:40;13.00;99.90
16076;DHT22;8142;48.242;11.644;2023-08-07T04:48:07;13.00;99.90
16076;DHT22;8142;48.242;11.644;2023-08-07T04:50:34;13.00;99.90
16076;DHT22;8142;48.242;11.644;2023-08-07T04:53:00;13.00;99.90
16076;DHT22;8142;48.242;11.644;2023-08-07T04:55:26;13.00;99.90
16076;DHT22;8142;48.242;11.644;2023-08-07T04:57:51;13.00;99.90
16076;DHT22;8142;48.242;11.644;2023-08-07T05:00:21;13.00;99.90
16076;DHT22;8142;48.242;11.644;2023-08-07T05:02:47;13.00;99.90
16076;DHT22;8142;48.242;11.644;2023-08-07T05:05:16;13.00;99.90
16076;DHT22;8142;48.242;11.644;2023-08-07T05:07:43;13.10;99.90
16076;DHT22;8142;48.242;11.644;2023-08-07T05:10:09;13.00;99.90
16076;DHT22;8142;48.242;11.644;2023-08-07T05:12:35;13.00;99.90
16076;DHT22;8142;48.242;11.644;2023-08-07T05:15:01;13.00;99.90
16076;DHT22;8142;48.242;11.644;2023-08-07T05:17:27;13.10;99.90
16076;DHT22;8142;48.242;11.644;2023-08-07T05:19:53;13.10;99.90
16076;DHT22;8142;48.242;11.644;2023-08-07T05:22:19;13.10;99.90
16076;DHT22;8142;48.242;11.644;2023-08-07T05:24:45;13.10;99.90
16076;DHT22;8142;48.242;11.644;2023-08-07T05:27:11;13.10;99.90
16076;DHT22;8142;48.242;11.644;2023-08-07T05:29:37;13.10;99.90
16076;DHT22;8142;48.242;11.644;2023-08-07T05:32:12;13.10;99.90
16076;DHT22;8142;48.242;11.644;2023-08-07T05:34:39;13.10;99.90
16076;DHT22;8142;48.242;11.644;2023-08-07T05:37:05;13.10;99.90
16076;DHT22;8142;48.242;11.644;2023-08-07T05:39:31;13.10;99.90
16076;DHT22;8142;48.242;11.644;2023-08-07T05:41:58;13.10;99.90
16076;DHT22;8142;48.242;11.644;2023-08-07T05:44:24;13.20;99.90
16076;DHT22;8142;48.242;11.644;2023-08-07T05:46:50;13.20;99.90
16076;DHT22;8142;48.242;11.644;2023-08-07T05:49:16;13.20;99.90
16076;DHT22;8142;48.242;11.644;2023-08-07T05:51:42;13.20;99.90
16076;DHT22;8142;48.242;11.644;2023-08-07T05:54:08;13.20;99.90
16076;DHT22;8142;48.242;11.644;2023-08-07T05:56:34;13.20;99.90
16076;DHT22;8142;48.242;11.644;2023-08-07T05:58:59;13.20;99.90
16076;DHT22;8142;48.242;11.644;2023-08-07T06:01:25;13.20;99.90
16076;DHT22;8142;48.242;11.644;2023-08-07T06:03:57;13.20;99.90
16076;DHT22;8142;48.242;11.644;2023-08-07T06:06:24;13.30;99.90
16076;DHT22;8142;48.242;11.644;2023-08-07T06:08:51;13.30;99.90
16076;DHT22;8142;48.242;11.644;2023-08-07T06:11:17;13.30;99.90
16076;DHT22;8142;48.242;11.644;2023-08-07T06:13:43;13.30;99.90
16076;DHT22;8142;48.242;11.644;2023-08-07T06:16:09;13.30;99.90
16076;DHT22;8142;48.242;11.644;2023-08-07T06:18:37;13.30;99.90
16076;DHT22;8142;48.242;11.644;2023-08-07T06:21:03;13.40;99.90
16076;DHT22;8142;48.242;11.644;2023-08-07T06:23:32;13.40;99.90
16076;DHT22;8142;48.242;11.644;2023-08-07T06:25:58;13.40;99.90
16076;DHT22;8142;48.242;11.644;2023-08-07T06:28:24;13.40;99.90
16076;DHT22;8142;48.242;11.644;2023-08-07T06:30:50;13.40;99.90
16076;DHT22;8142;48.242;11.644;2023-08-07T06:33:16;13.40;99.90
16076;DHT22;8142;48.242;11.644;2023-08-07T06:35:42;13.40;99.90
16076;DHT22;8142;48.242;11.644;2023-08-07T06:38:13;13.50;99.90
16076;DHT22;8142;48.242;11.644;2023-08-07T06:40:39;13.40;99.90
16076;DHT22;8142;48.242;11.644;2023-08-07T06:43:05;13.50;99.90
16076;DHT22;8142;48.242;11.644;2023-08-07T06:45:31;13.50;99.90
16076;DHT22;8142;48.242;11.644;2023-08-07T06:47:57;13.50;99.90
16076;DHT22;8142;48.242;11.644;2023-08-07T06:50:23;13.50;99.90
16076;DHT22;8142;48.242;11.644;2023-08-07T06:52:49;13.60;99.90
16076;DHT22;8142;48.242;11.644;2023-08-07T06:55:15;13.70;99.90
16076;DHT22;8142;48.242;11.644;2023-08-07T06:57:41;13.80;99.90
16076;DHT22;8142;48.242;11.644;2023-08-07T07:00:07;13.80;99.90
16076;DHT22;8142;48.242;11.644;2023-08-07T07:02:35;13.90;99.90
16076;DHT22;8142;48.242;11.644;2023-08-07T07:05:01;13.90;99.90
16076;DHT22;8142;48.242;11.644;2023-08-07T07:07:27;13.90;99.90
16076;DHT22;8142;48.242;11.644;2023-08-07T07:09:53;13.80;99.90
16076;DHT22;8142;48.242;11.644;2023-08-07T07:12:18;13.70;99.90
16076;DHT22;8142;48.242;11.644;2023-08-07T07:14:44;13.70;99.90
16076;DHT22;8142;48.242;11.644;2023-08-07T07:17:10;13.60;99.90
16076;DHT22;8142;48.242;11.644;2023-08-07T07:19:36;13.60;99.90
16076;DHT22;8142;48.242;11.644;2023-08-07T07:22:02;13.60;99.90
16076;DHT22;8142;48.242;11.644;2023-08-07T07:24:28;13.50;99.90
16076;DHT22;8142;48.242;11.644;2023-08-07T07:26:54;13.60;99.90
16076;DHT22;8142;48.242;11.644;2023-08-07T07:29:20;13.60;99.90
16076;DHT22;8142;48.242;11.644;2023-08-07T07:31:46;13.70;99.90
16076;DHT22;8142;48.242;11.644;2023-08-07T07:34:12;13.80;99.90
16076;DHT22;8142;48.242;11.644;2023-08-07T07:36:38;13.90;99.90
16076;DHT22;8142;48.242;11.644;2023-08-07T07:39:04;14.00;99.90
16076;DHT22;8142;48.242;11.644;2023-08-07T07:41:30;14.20;99.90
16076;DHT22;8142;48.242;11.644;2023-08-07T07:43:56;14.30;99.90
16076;DHT22;8142;48.242;11.644;2023-08-07T07:46:23;14.50;99.90
16076;DHT22;8142;48.242;11.644;2023-08-07T07:48:49;14.80;99.90
16076;DHT22;8142;48.242;11.644;2023-08-07T07:51:15;15.10;99.90
16076;DHT22;8142;48.242;11.644;2023-08-07T07:53:41;15.30;99.90
16076;DHT22;8142;48.242;11.644;2023-08-07T07:56:07;15.50;99.90
16076;DHT22;8142;48.242;11.644;2023-08-07T07:58:33;15.70;99.90
16076;DHT22;8142;48.242;11.644;2023-08-07T08:00:59;15.80;99.90
16076;DHT22;8142;48.242;11.644;2023-08-07T08:03:25;15.90;99.90
16076;DHT22;8142;48.242;11.644;2023-08-07T08:05:51;16.00;99.90
16076;DHT22;8142;48.242;11.644;2023-08-07T08:08:17;16.20;99.90
16076;DHT22;8142;48.242;11.644;2023-08-07T08:10:44;16.30;99.90
16076;DHT22;8142;48.242;11.644;2023-08-07T08:13:10;16.30;99.90
16076;DHT22;8142;48.242;11.644;2023-08-07T08:15:36;16.30;99.90
16076;DHT22;8142;48.242;11.644;2023-08-07T08:18:02;16.30;99.90
16076;DHT22;8142;48.242;11.644;2023-08-07T08:20:28;16.30;99.90
16076;DHT22;8142;48.242;11.644;2023-08-07T08:22:55;16.20;99.90
16076;DHT22;8142;48.242;11.644;2023-08-07T08:25:21;16.30;99.90
16076;DHT22;8142;48.242;11.644;2023-08-07T08:27:47;16.30;99.90
16076;DHT22;8142;48.242;11.644;2023-08-07T08:30:13;16.30;99.90
16076;DHT22;8142;48.242;11.644;2023-08-07T08:32:39;16.30;99.90
16076;DHT22;8142;48.242;11.644;2023-08-07T08:35:05;16.30;99.90
16076;DHT22;8142;48.242;11.644;2023-08-07T08:37:31;16.30;99.90
16076;DHT22;8142;48.242;11.644;2023-08-07T08:39:57;16.30;99.90
16076;DHT22;8142;48.242;11.644;2023-08-07T08:42:23;16.30;99.90
16076;DHT22;8142;48.242;11.644;2023-08-07T08:44:54;16.20;99.90
16076;DHT22;8142;48.242;11.644;2023-08-07T08:47:26;16.20;99.90
16076;DHT22;8142;48.242;11.644;2023-08-07T08:50:04;16.10;99.90
16076;DHT22;8142;48.242;11.644;2023-08-07T08:52:32;16.10;99.90
16076;DHT22;8142;48.242;11.644;2023-08-07T08:54:58;16.00;99.90
16076;DHT22;8142;48.242;11.644;2023-08-07T08:57:25;16.00;99.90
16076;DHT22;8142;48.242;11.644;2023-08-07T08:59:56;15.90;99.90
16076;DHT22;8142;48.242;11.644;2023-08-07T09:02:22;15.90;99.90
16076;DHT22;8142;48.242;11.644;2023-08-07T09:04:48;15.90;99.90
16076;DHT22;8142;48.242;11.644;2023-08-07T09:07:15;15.80;99.90
16076;DHT22;8142;48.242;11.644;2023-08-07T09:09:44;15.80;99.90
16076;DHT22;8142;48.242;11.644;2023-08-07T09:12:19;15.80;99.90
16076;DHT22;8142;48.242;11.644;2023-08-07T09:14:49;15.80;99.90
16076;DHT22;8142;48.242;11.644;2023-08-07T09:17:19;15.90;99.90
16076;DHT22;8142;48.242;11.644;2023-08-07T09:19:46;15.90;99.90
16076;DHT22;8142;48.242;11.644;2023-08-07T09:22:12;15.90;99.90
16076;DHT22;8142;48.242;11.644;2023-08-07T09:24:38;16.00;99.90
16076;DHT22;8142;48.242;11.644;2023-08-07T09:27:07;16.00;99.90
16076;DHT22;8142;48.242;11.644;2023-08-07T09:29:33;16.00;99.90
16076;DHT22;8142;48.242;11.644;2023-08-07T09:32:09;16.00;99.90
16076;DHT22;8142;48.242;11.644;2023-08-07T09:34:35;16.00;99.90
16076;DHT22;8142;48.242;11.644;2023-08-07T09:37:01;16.10;99.90
16076;DHT22;8142;48.242;11.644;2023-08-07T09:39:29;16.10;99.90
16076;DHT22;8142;48.242;11.644;2023-08-07T09:41:55;16.10;99.90
16076;DHT22;8142;48.242;11.644;2023-08-07T09:44:21;16.20;99.90
16076;DHT22;8142;48.242;11.644;2023-08-07T09:46:47;16.20;99.90
16076;DHT22;8142;48.242;11.644;2023-08-07T09:49:13;16.30;99.90
16076;DHT22;8142;48.242;11.644;2023-08-07T09:51:46;16.30;99.90
16076;DHT22;8142;48.242;11.644;2023-08-07T09:54:13;16.40;99.90
16076;DHT22;8142;48.242;11.644;2023-08-07T09:56:43;16.40;99.90
16076;DHT22;8142;48.242;11.644;2023-08-07T09:59:11;16.50;99.90
16076;DHT22;8142;48.242;11.644;2023-08-07T10:01:38;16.60;99.90
16076;DHT22;8142;48.242;11.644;2023-08-07T10:04:06;16.70;99.90
16076;DHT22;8142;48.242;11.644;2023-08-07T10:06:33;16.70;99.90
16076;DHT22;8142;48.242;11.644;2023-08-07T10:09:01;16.80;99.90
16076;DHT22;8142;48.242;11.644;2023-08-07T10:11:27;16.80;99.90
16076;DHT22;8142;48.242;11.644;2023-08-07T10:13:53;16.80;99.90
16076;DHT22;8142;48.242;11.644;2023-08-07T10:16:20;16.90;99.90
16076;DHT22;8142;48.242;11.644;2023-08-07T10:18:46;16.90;99.90
16076;DHT22;8142;48.242;11.644;2023-08-07T10:21:12;16.90;99.90
16076;DHT22;8142;48.242;11.644;2023-08-07T10:23:38;16.90;99.90
16076;DHT22;8142;48.242;11.644;2023-08-07T10:26:06;16.90;99.90
16076;DHT22;8142;48.242;11.644;2023-08-07T10:28:37;16.90;99.90
16076;DHT22;8142;48.242;11.644;2023-08-07T10:31:08;16.90;99.90
16076;DHT22;8142;48.242;11.644;2023-08-07T10:33:35;17.00;99.90
16076;DHT22;8142;48.242;11.644;2023-08-07T10:36:08;17.00;99.90
16076;DHT22;8142;48.242;11.644;2023-08-07T10:38:35;17.10;99.90
16076;DHT22;8142;48.242;11.644;2023-08-07T10:41:14;17.10;99.90
16076;DHT22;8142;48.242;11.644;2023-08-07T10:43:41;17.10;99.90
16076;DHT22;8142;48.242;11.644;2023-08-07T10:46:20;17.20;99.90
16076;DHT22;8142;48.242;11.644;2023-08-07T10:48:53;17.20;99.90
16076;DHT22;8142;48.242;11.644;2023-08-07T10:51:19;17.20;99.90
16076;DHT22;8142;48.242;11.644;2023-08-07T10:53:47;17.40;99.90
16076;DHT22;8142;48.242;11.644;2023-08-07T10:56:18;17.50;99.90
16076;DHT22;8142;48.242;11.644;2023-08-07T10:58:51;17.60;99.90
16076;DHT22;8142;48.242;11.644;2023-08-07T11:03:58;17.60;99.90
16076;DHT22;8142;48.242;11.644;2023-08-07T11:06:29;17.70;99.90
16076;DHT22;8142;48.242;11.644;2023-08-07T11:09:00;17.70;99.90
16076;DHT22;8142;48.242;11.644;2023-08-07T11:11:29;17.80;99.90
16076;DHT22;8142;48.242;11.644;2023-08-07T11:13:55;17.70;99.90
16076;DHT22;8142;48.242;11.644;2023-08-07T11:16:21;17.70;99.90
16076;DHT22;8142;48.242;11.644;2023-08-07T11:18:48;17.70;99.90
16076;DHT22;8142;48.242;11.644;2023-08-07T11:21:14;17.70;99.90
16076;DHT22;8142;48.242;11.644;2023-08-07T11:23:40;17.70;99.90
16076;DHT22;8142;48.242;11.644;2023-08-07T11:26:08;17.70;99.90
16076;DHT22;8142;48.242;11.644;2023-08-07T11:28:34;17.70;99.90
16076;DHT22;8142;48.242;11.644;2023-08-07T11:31:00;17.70;99.90
16076;DHT22;8142;48.242;11.644;2023-08-07T11:33:28;17.70;99.90
16076;DHT22;8142;48.242;11.644;2023-08-07T11:35:54;17.70;99.90
16076;DHT22;8142;48.242;11.644;2023-08-07T11:38:38;17.70;99.90
16076;DHT22;8142;48.242;11.644;2023-08-07T11:41:05;17.70;99.90
16076;DHT22;8142;48.242;11.644;2023-08-07T11:43:33;17.70;99.90
16076;DHT22;8142;48.242;11.644;2023-08-07T11:46:01;17.70;99.90
16076;DHT22;8142;48.242;11.644;2023-08-07T11:48:28;17.70;99.90
16076;DHT22;8142;48.242;11.644;2023-08-07T11:50:56;17.80;99.90
16076;DHT22;8142;48.242;11.644;2023-08-07T11:53:24;17.90;99.90
16076;DHT22;8142;48.242;11.644;2023-08-07T11:55:55;17.90;99.90
16076;DHT22;8142;48.242;11.644;2023-08-07T11:58:22;18.00;99.90
16076;DHT22;8142;48.242;11.644;2023-08-07T12:00:49;18.10;99.90
16076;DHT22;8142;48.242;11.644;2023-08-07T12:03:31;18.10;99.90
16076;DHT22;8142;48.242;11.644;2023-08-07T12:05:59;18.20;99.90
16076;DHT22;8142;48.242;11.644;2023-08-07T12:08:39;18.30;99.90
16076;DHT22;8142;48.242;11.644;2023-08-07T12:11:10;18.40;99.90
16076;DHT22;8142;48.242;11.644;2023-08-07T12:13:38;18.40;99.90
16076;DHT22;8142;48.242;11.644;2023-08-07T12:16:04;18.40;99.90
16076;DHT22;8142;48.242;11.644;2023-08-07T12:18:31;18.50;99.90
16076;DHT22;8142;48.242;11.644;2023-08-07T12:21:02;18.50;99.90
16076;DHT22;8142;48.242;11.644;2023-08-07T12:23:33;18.50;99.90
16076;DHT22;8142;48.242;11.644;2023-08-07T12:25:59;18.50;99.90
16076;DHT22;8142;48.242;11.644;2023-08-07T12:28:25;18.40;99.90
16076;DHT22;8142;48.242;11.644;2023-08-07T12:30:51;18.30;99.90
16076;DHT22;8142;48.242;11.644;2023-08-07T12:33:18;18.30;99.90
16076;DHT22;8142;48.242;11.644;2023-08-07T12:35:43;18.30;99.90
16076;DHT22;8142;48.242;11.644;2023-08-07T12:38:10;18.30;99.90
16076;DHT22;8142;48.242;11.644;2023-08-07T12:40:37;18.30;99.90
16076;DHT22;8142;48.242;11.644;2023-08-07T12:43:03;18.30;99.90
16076;DHT22;8142;48.242;11.644;2023-08-07T12:45:30;18.30;99.90
16076;DHT22;8142;48.242;11.644;2023-08-07T12:47:55;18.30;99.90
16076;DHT22;8142;48.242;11.644;2023-08-07T12:50:21;18.20;99.90
16076;DHT22;8142;48.242;11.644;2023-08-07T12:52:47;18.30;99.90
16076;DHT22;8142;48.242;11.644;2023-08-07T12:55:13;18.20;99.90
16076;DHT22;8142;48.242;11.644;2023-08-07T12:57:43;18.20;99.90
16076;DHT22;8142;48.242;11.644;2023-08-07T13:00:15;18.20;99.90
16076;DHT22;8142;48.242;11.644;2023-08-07T13:02:43;18.20;99.90
16076;DHT22;8142;48.242;11.644;2023-08-07T13:05:09;18.10;99.90
16076;DHT22;8142;48.242;11.644;2023-08-07T13:07:39;18.20;99.90
16076;DHT22;8142;48.242;11.644;2023-08-07T13:10:06;18.20;99.90
16076;DHT22;8142;48.242;11.644;2023-08-07T13:12:36;18.20;99.90
16076;DHT22;8142;48.242;11.644;2023-08-07T13:15:06;18.20;99.90
16076;DHT22;8142;48.242;11.644;2023-08-07T13:17:32;18.20;99.90
16076;DHT22;8142;48.242;11.644;2023-08-07T13:19:59;18.10;99.90
16076;DHT22;8142;48.242;11.644;2023-08-07T13:22:26;18.10;99.90
16076;DHT22;8142;48.242;11.644;2023-08-07T13:24:52;18.10;99.90
16076;DHT22;8142;48.242;11.644;2023-08-07T13:27:18;18.10;99.90
16076;DHT22;8142;48.242;11.644;2023-08-07T13:29:44;18.10;99.90
16076;DHT22;8142;48.242;11.644;2023-08-07T13:32:10;18.10;99.90
16076;DHT22;8142;48.242;11.644;2023-08-07T13:34:37;18.10;99.90
16076;DHT22;8142;48.242;11.644;2023-08-07T13:37:04;18.20;99.90
16076;DHT22;8142;48.242;11.644;2023-08-07T13:39:30;18.20;99.90
16076;DHT22;8142;48.242;11.644;2023-08-07T13:41:57;18.20;99.90
16076;DHT22;8142;48.242;11.644;2023-08-07T13:44:22;18.10;99.90
16076;DHT22;8142;48.242;11.644;2023-08-07T13:46:48;18.10;99.90
16076;DHT22;8142;48.242;11.644;2023-08-07T13:49:14;18.00;99.90
16076;DHT22;8142;48.242;11.644;2023-08-07T13:51:41;18.00;99.90
16076;DHT22;8142;48.242;11.644;2023-08-07T13:54:07;18.00;99.90
16076;DHT22;8142;48.242;11.644;2023-08-07T13:56:34;18.00;99.90
16076;DHT22;8142;48.242;11.644;2023-08-07T13:58:59;17.90;99.90
16076;DHT22;8142;48.242;11.644;2023-08-07T14:01:26;17.90;99.90
16076;DHT22;8142;48.242;11.644;2023-08-07T14:03:53;17.90;99.90
16076;DHT22;8142;48.242;11.644;2023-08-07T14:06:20;17.90;99.90
16076;DHT22;8142;48.242;11.644;2023-08-07T14:08:46;17.90;99.90
16076;DHT22;8142;48.242;11.644;2023-08-07T14:11:12;17.90;99.90
16076;DHT22;8142;48.242;11.644;2023-08-07T14:13:40;17.90;99.90
16076;DHT22;8142;48.242;11.644;2023-08-07T14:16:06;17.90;99.90
16076;DHT22;8142;48.242;11.644;2023-08-07T14:18:32;17.90;99.90
16076;DHT22;8142;48.242;11.644;2023-08-07T14:20:58;18.00;99.90
16076;DHT22;8142;48.242;11.644;2023-08-07T14:23:24;18.00;99.90
16076;DHT22;8142;48.242;11.644;2023-08-07T14:25:50;18.00;99.90
16076;DHT22;8142;48.242;11.644;2023-08-07T14:28:19;18.00;99.90
16076;DHT22;8142;48.242;11.644;2023-08-07T14:30:45;18.00;99.90
16076;DHT22;8142;48.242;11.644;2023-08-07T14:33:11;18.00;99.90
16076;DHT22;8142;48.242;11.644;2023-08-07T14:35:36;18.00;99.90
16076;DHT22;8142;48.242;11.644;2023-08-07T14:38:02;18.00;99.90
16076;DHT22;8142;48.242;11.644;2023-08-07T14:40:28;18.00;99.90
16076;DHT22;8142;48.242;11.644;2023-08-07T14:42:54;18.00;99.90
16076;DHT22;8142;48.242;11.644;2023-08-07T14:45:21;18.00;99.90
16076;DHT22;8142;48.242;11.644;2023-08-07T14:47:48;17.90;99.90
16076;DHT22;8142;48.242;11.644;2023-08-07T14:50:14;18.00;99.90
16076;DHT22;8142;48.242;11.644;2023-08-07T14:52:42;17.90;99.90
16076;DHT22;8142;48.242;11.644;2023-08-07T14:55:08;17.90;99.90
16076;DHT22;8142;48.242;11.644;2023-08-07T14:57:34;17.90;99.90
16076;DHT22;8142;48.242;11.644;2023-08-07T15:00:00;17.90;99.90
16076;DHT22;8142;48.242;11.644;2023-08-07T15:02:26;17.80;99.90
16076;DHT22;8142;48.242;11.644;2023-08-07T15:04:52;17.80;99.90
16076;DHT22;8142;48.242;11.644;2023-08-07T15:07:18;17.80;99.90
16076;DHT22;8142;48.242;11.644;2023-08-07T15:09:44;17.90;99.90
16076;DHT22;8142;48.242;11.644;2023-08-07T15:12:10;17.80;99.90
16076;DHT22;8142;48.242;11.644;2023-08-07T15:14:36;17.90;99.90
16076;DHT22;8142;48.242;11.644;2023-08-07T15:17:03;17.90;99.90
16076;DHT22;8142;48.242;11.644;2023-08-07T15:19:29;17.90;99.90
16076;DHT22;8142;48.242;11.644;2023-08-07T15:21:55;17.90;99.90
16076;DHT22;8142;48.242;11.644;2023-08-07T15:24:21;17.90;99.90
16076;DHT22;8142;48.242;11.644;2023-08-07T15:26:46;17.90;99.90
16076;DHT22;8142;48.242;11.644;2023-08-07T15:29:12;17.90;99.90
16076;DHT22;8142;48.242;11.644;2023-08-07T15:31:38;17.80;99.90
16076;DHT22;8142;48.242;11.644;2023-08-07T15:34:04;17.80;99.90
16076;DHT22;8142;48.242;11.644;2023-08-07T15:36:30;17.80;99.90